Flight Track Log - Related Links

Times and Time Zones

All times are in EDT time to prevent confusion due to time zone crossing. See the UAL1259 flight status page for this flight to view local times or setup timezone preferences in your user account.

Time Position Orientation Groundspeed Altitude Reporting Facility
EDT Latitude Longitude Course Direction KTS MPH feet Rate Location/Type
Thu 01:53:17 AM 33.9370 -118.4060 260° West 154 177 600  Level FlightAware ADS-B
Thu 01:53:47 AM 33.9320 -118.4350 258° West 200 230 1,700 2,800 Climbing FlightAware ADS-B
Thu 01:54:17 AM 33.9270 -118.4670 259° West 220 253 3,400 3,382 Climbing FlightAware ADS-B
Thu 01:54:42 AM 33.9230 -118.4980 261° West 248 285 4,800 3,491 Climbing FlightAware ADS-B
Thu 01:55:12 AM 33.9190 -118.5400 263° West 274 315 6,600 4,255 Climbing FlightAware ADS-B
Thu 01:55:37 AM 33.9150 -118.5860 264° West 286 329 8,700 4,500 Climbing FlightAware ADS-B
Thu 01:55:52 AM 33.9120 -118.6060 260° West 292 336 9,600 3,927 Climbing FlightAware ADS-B
Thu 01:56:32 AM 33.9040 -118.6610 260° West 292 336 12,300 4,659 Climbing FlightAware ADS-B
Thu 01:57:17 AM 33.8850 -118.7750 259° West 326 375 16,200 4,160 Climbing FlightAware ADS-B
Thu 01:57:47 AM 33.9100 -118.8230 302° West 334 384 17,500 3,000 Climbing FlightAware ADS-B
Thu 01:58:27 AM 33.9580 -118.8720 320° Northwest 343 395 19,700 3,347 Climbing FlightAware ADS-B
Thu 01:59:22 AM 34.0210 -118.9470 315° West 345 397 22,800 3,095 Climbing FlightAware ADS-B
Thu 02:00:02 AM 34.0670 -119.0030 315° West 357 411 24,600 2,475 Climbing FlightAware ADS-B
Thu 02:00:42 AM 34.1110 -119.0570 315° West 366 421 26,100 2,259 Climbing FlightAware ADS-B
Thu 02:01:27 AM 34.1690 -119.1270 315° West 377 434 27,800 2,000 Climbing FlightAware ADS-B
Thu 02:02:12 AM 34.2250 -119.1940 315° West 388 447 29,100 1,694 Climbing FlightAware ADS-B
Thu 02:02:52 AM 34.2750 -119.2540 315° West 398 458 30,200 1,800 Climbing FlightAware ADS-B
Thu 02:03:32 AM 34.3290 -119.3200 315° West 403 464 31,500 2,188 Climbing FlightAware ADS-B
Thu 02:04:17 AM 34.3880 -119.3910 315° West 393 452 33,300 2,259 Climbing FlightAware ADS-B
Thu 02:04:57 AM 34.4400 -119.4540 315° West 388 447 34,700 1,705 Climbing FlightAware ADS-B
Thu 02:05:52 AM 34.5030 -119.5310 315° West 376 433 36,000 678 Climbing FlightAware ADS-B
Thu 02:06:52 AM 34.5780 -119.6220 315° West 385 443 36,000  Level FlightAware ADS-B
Thu 02:07:27 AM 34.6220 -119.6760 315° West 376 433 36,000  Level FlightAware ADS-B
Thu 02:08:12 AM 34.6780 -119.7450 315° West 374 430 36,000  Level FlightAware ADS-B
Thu 02:08:57 AM 34.7330 -119.8120 315° West 369 425 36,000  Level FlightAware ADS-B
Thu 02:09:37 AM 34.7810 -119.8720 314° West 368 423 36,000  Level FlightAware ADS-B
Thu 02:10:22 AM 34.8350 -119.9390 314° West 367 422 36,000  Level FlightAware ADS-B
Thu 02:11:02 AM 34.8830 -119.9980 315° West 369 425 36,000  Level FlightAware ADS-B
Thu 02:11:42 AM 34.9310 -120.0570 315° West 369 425 36,000  Level FlightAware ADS-B
Thu 02:12:27 AM 34.9840 -120.1230 314° West 369 425 36,000  Level FlightAware ADS-B
Thu 02:13:07 AM 35.0310 -120.1820 314° West 372 428 36,000  Level FlightAware ADS-B
Thu 02:13:52 AM 35.0870 -120.2510 315° West 373 429 36,000  Level FlightAware ADS-B
Thu 02:14:32 AM 35.1360 -120.3110 315° West 369 425 36,000  Level FlightAware ADS-B
Thu 02:15:07 AM 35.1750 -120.3600 314° West 371 427 36,000  Level FlightAware ADS-B
Thu 02:15:57 AM 35.2430 -120.4450 314° West 379 436 36,000  Level FlightAware ADS-B
Thu 02:16:37 AM 35.2960 -120.5010 319° Northwest 378 435 36,000  Level FlightAware ADS-B
Thu 02:17:22 AM 35.3560 -120.5590 322° Northwest 379 436 36,000  Level FlightAware ADS-B
Thu 02:18:12 AM 35.4210 -120.6250 320° Northwest 379 436 36,000  Level FlightAware ADS-B
Thu 02:18:57 AM 35.4880 -120.6900 322° Northwest 380 437 36,000  Level FlightAware ADS-B
Thu 02:19:37 AM 35.5420 -120.7430 321° Northwest 380 437 36,000  Level FlightAware ADS-B
Thu 02:20:22 AM 35.6020 -120.8030 321° Northwest 380 437 36,000  Level FlightAware ADS-B
Thu 02:21:02 AM 35.6580 -120.8590 321° Northwest 380 437 36,000  Level FlightAware ADS-B
Thu 02:21:47 AM 35.7180 -120.9190 321° Northwest 379 436 36,000  Level FlightAware ADS-B
Thu 02:22:27 AM 35.7740 -120.9750 321° Northwest 379 436 36,000  Level FlightAware ADS-B
Thu 02:23:12 AM 35.8320 -121.0340 320° Northwest 378 435 36,000 -282 Level FlightAware ADS-B
Thu 02:23:52 AM 35.8870 -121.0880 322° Northwest 381 438 35,600 -825 Descending FlightAware ADS-B
Thu 02:24:32 AM 35.9430 -121.1440 321° Northwest 387 445 34,900 -988 Descending FlightAware ADS-B
Thu 02:25:17 AM 36.0060 -121.2080 321° Northwest 387 445 34,200 -918 Descending FlightAware ADS-B
Thu 02:25:57 AM 36.0620 -121.2640 321° Northwest 388 447 33,600 -975 Descending FlightAware ADS-B
Thu 02:26:37 AM 36.1180 -121.3220 320° Northwest 392 451 32,900 -988 Descending FlightAware ADS-B
Thu 02:27:22 AM 36.1790 -121.3830 321° Northwest 397 457 32,200 -918 Descending FlightAware ADS-B
Thu 02:28:02 AM 36.2330 -121.4380 321° Northwest 399 459 31,600 -988 Descending FlightAware ADS-B
Thu 02:28:47 AM 36.3020 -121.5080 321° Northwest 394 453 30,800 -1,059 Descending FlightAware ADS-B
Thu 02:29:27 AM 36.3580 -121.5660 320° Northwest 390 449 30,100 -1,705 Descending FlightAware ADS-B
Thu 02:30:22 AM 36.4310 -121.6400 321° Northwest 375 432 28,100 -2,280 Descending FlightAware ADS-B
Thu 02:31:07 AM 36.4900 -121.7000 321° Northwest 365 420 26,300 -2,541 Descending FlightAware ADS-B
Thu 02:31:47 AM 36.5440 -121.7560 320° Northwest 358 412 24,500 -2,400 Descending FlightAware ADS-B
Thu 02:32:22 AM 36.5870 -121.8010 320° Northwest 350 403 23,300 -2,259 Descending FlightAware ADS-B
Thu 02:33:12 AM 36.6500 -121.8650 321° Northwest 338 389 21,300 -2,333 Descending FlightAware ADS-B
Thu 02:33:52 AM 36.6970 -121.9140 320° Northwest 331 381 19,800 -2,175 Descending FlightAware ADS-B
Thu 02:34:32 AM 36.7460 -121.9600 323° Northwest 322 371 18,400 -1,694 Descending FlightAware ADS-B
Thu 02:35:17 AM 36.8060 -121.9800 345° North 314 361 17,400 -1,467 Descending FlightAware ADS-B
Thu 02:36:02 AM 36.8720 -121.9980 348° North 311 358 16,200 -1,906 Descending FlightAware ADS-B
Thu 02:36:42 AM 36.9280 -122.0120 349° North 304 350 14,700 -2,175 Descending FlightAware ADS-B
Thu 02:37:22 AM 36.9820 -122.0260 348° North 298 343 13,300 -2,047 Descending FlightAware ADS-B
Thu 02:38:07 AM 37.0410 -122.0420 348° North 292 336 11,800 -2,047 Descending FlightAware ADS-B
Thu 02:38:47 AM 37.0940 -122.0560 348° North 293 337 10,400 -1,543 Descending FlightAware ADS-B
Thu 02:39:17 AM 37.1290 -122.0650 348° North 279 321 10,000 -600 Descending FlightAware ADS-B
Thu 02:39:57 AM 37.1690 -122.0960 328° Northwest 259 298 9,700 -257 Descending FlightAware ADS-B
Thu 02:40:27 AM 37.1850 -122.1320 299° West 232 267 9,700  Level FlightAware ADS-B
Thu 02:40:52 AM 37.1980 -122.1610 299° West 227 261 9,700  Level FlightAware ADS-B
Thu 02:41:22 AM 37.2130 -122.1950 299° West 224 258 9,700 -655 Level FlightAware ADS-B
Thu 02:41:47 AM 37.2260 -122.2240 299° West 230 265 9,100 -1,350 Descending FlightAware ADS-B
Thu 02:42:02 AM 37.2340 -122.2410 301° West 231 266 8,800 -1,333 Descending FlightAware ADS-B
Thu 02:42:32 AM 37.2490 -122.2770 298° West 234 269 8,100 -1,200 Descending FlightAware ADS-B
Thu 02:42:42 AM 37.2540 -122.2880 300° West 232 267 8,000 -600 Descending FlightAware ADS-B
Thu 02:43:12 AM 37.2700 -122.3240 299° West 228 262 7,700 -277 Descending FlightAware ADS-B
Thu 02:43:47 AM 37.2870 -122.3640 298° West 209 241 7,700 -300 Level FlightAware ADS-B
Thu 02:44:12 AM 37.2980 -122.3890 299° West 198 228 7,400 -982 Descending FlightAware ADS-B
Thu 02:44:42 AM 37.3130 -122.4160 305° West 194 223 6,800 -1,067 Descending FlightAware ADS-B
Thu 02:44:57 AM 37.3220 -122.4190 345° North 181 208 6,600 -1,050 Descending FlightAware ADS-B
Thu 02:45:22 AM 37.3450 -122.4130 12° North 177 204 6,100 -982 Descending FlightAware ADS-B
Thu 02:45:52 AM 37.3680 -122.4060 14° North 180 207 5,700 -436 Descending FlightAware ADS-B
Thu 02:46:17 AM 37.3890 -122.3990 15° North 180 207 5,700  Level FlightAware ADS-B
Thu 02:46:37 AM 37.4000 -122.3840 47° Northeast 179 206 5,700  Level FlightAware ADS-B
Thu 02:47:37 AM 37.4010 -122.3210 89° East 187 215 5,700  Level FlightAware ADS-B
Thu 02:48:12 AM 37.4010 -122.2840 90° East 186 214 5,700  Level FlightAware ADS-B
Thu 02:48:32 AM 37.4010 -122.2630 90° East 187 215 5,700  Level FlightAware ADS-B
Thu 02:49:07 AM 37.4000 -122.2220 92° East 188 216 5,700  Level FlightAware ADS-B
Thu 02:49:22 AM 37.4000 -122.2070 90° East 189 217 5,700 -436 Level FlightAware ADS-B
Thu 02:50:02 AM 37.4050 -122.1640 82° East 183 211 5,300 -831 Descending FlightAware ADS-B
Thu 02:50:27 AM 37.4130 -122.1380 69° East 183 211 4,800 -1,200 Descending FlightAware ADS-B
Thu 02:50:47 AM 37.4190 -122.1200 67° East 181 208 4,400 -1,200 Descending FlightAware ADS-B
Thu 02:50:57 AM 37.4250 -122.1130 43° Northeast 178 205 4,200 -960 Descending FlightAware ADS-B
Thu 02:51:12 AM 37.4370 -122.1080 18° North 172 198 4,000 -667 Descending FlightAware ADS-B
Thu 02:51:42 AM 37.4600 -122.1010 14° North 171 197 3,700 -514 Descending FlightAware ADS-B
Thu 02:51:47 AM 37.4630 -122.1010 360° North 170 196 3,700  Level FlightAware ADS-B
Thu 02:52:07 AM 37.4770 -122.1100 333° Northwest 178 205 3,700  Level FlightAware ADS-B
Thu 02:52:22 AM 37.4870 -122.1200 322° Northwest 176 203 3,700  Level FlightAware ADS-B
Thu 02:52:52 AM 37.5040 -122.1380 320° Northwest 163 188 3,700  Level FlightAware ADS-B
Thu 02:53:17 AM 37.5190 -122.1530 322° Northwest 158 182 3,700 -764 Level FlightAware ADS-B
Thu 02:53:47 AM 37.5340 -122.1710 316° Northwest 160 184 3,000 -1,200 Descending FlightAware ADS-B
Thu 02:54:12 AM 37.5430 -122.1900 301° West 160 184 2,600 -960 Descending FlightAware ADS-B
Thu 02:54:37 AM 37.5520 -122.2120 297° West 153 176 2,200 -900 Descending FlightAware ADS-B
Thu 02:55:12 AM 37.5650 -122.2410 299° West 152 175 1,700 -480 Descending FlightAware ADS-B
Thu 02:55:52 AM 37.5750 -122.2690 294° West 151 174 1,600 -150 Descending FlightAware ADS-B

Login

Don't have an account? Register now (free) for customized features, flight alerts, and more!